Time;durP1;ratioP1;P1;durP2;ratioP2;P2;SDS_P1;SDS_P2;PMS_P1;PMS_P2;Temp;Humidity;BMP_temperature;BMP_pressure;BME280_temperature;BME280_humidity;BME280_pressure;Samples;Min_cycle;Max_cycle;Signal;HPM_P1;HPM_P2
2022/10/02 00:02:25;;;;;;;9.10;8.30;;;;;;;22.61;56.87;94805.81;6158888;28;104127;-68
2022/10/02 00:05:34;;;;;;;8.00;7.30;;;;;;;22.60;56.61;94787.47;6152244;28;105118;-66
2022/10/02 00:08:41;;;;;;;8.43;7.63;;;;;;;22.62;56.84;94790.59;6150390;28;103548;-66
2022/10/02 00:11:50;;;;;;;9.00;8.20;;;;;;;22.59;56.76;94780.56;6159070;28;103171;-66
2022/10/02 00:15:00;;;;;;;8.20;7.50;;;;;;;22.61;56.92;94795.13;6159700;28;104162;-66
2022/10/02 00:18:09;;;;;;;8.03;7.30;;;;;;;22.60;56.39;94776.78;6148741;28;104643;-66
2022/10/02 00:21:22;;;;;;;8.83;8.03;;;;;;;22.61;56.21;94779.13;6159892;28;102944;-65
2022/10/02 00:24:34;;;;;;;9.57;8.77;;;;;;;22.61;56.53;94794.34;6156946;28;104406;-66
2022/10/02 00:27:47;;;;;;;9.53;8.63;;;;;;;22.58;56.67;94793.09;6159938;28;103127;-66
2022/10/02 00:31:19;;;;;;;10.50;9.50;;;;;;;22.60;56.37;94796.25;6148363;28;104040;-66
2022/10/02 00:34:31;;;;;;;12.20;11.10;;;;;;;22.57;56.56;94791.53;6159554;28;103045;-66
2022/10/02 00:37:43;;;;;;;14.37;12.97;;;;;;;22.57;56.44;94802.22;6143526;28;103275;-65
2022/10/02 00:41:15;;;;;;;14.67;13.10;;;;;;;22.59;56.81;94808.00;6148956;28;102951;-65
2022/10/02 00:44:31;;;;;;;15.13;13.67;;;;;;;22.56;57.19;94818.50;6147999;28;104594;-66
2022/10/02 00:47:44;;;;;;;16.20;14.70;;;;;;;22.57;56.52;94826.22;6157897;28;103658;-66
2022/10/02 00:50:57;;;;;;;16.07;14.70;;;;;;;22.56;56.71;94829.94;6157930;28;104178;-66
2022/10/02 00:54:13;;;;;;;14.93;13.67;;;;;;;22.57;56.34;94836.09;6147918;28;104639;-66
2022/10/02 00:57:31;;;;;;;16.50;15.00;;;;;;;22.55;56.49;94832.94;6158737;28;104593;-66
2022/10/02 01:00:35;;;;;;;15.80;14.40;;;;;;;22.55;56.24;94839.03;6149185;28;103146;-67
2022/10/02 01:03:40;;;;;;;17.40;15.80;;;;;;;22.55;56.12;94851.59;6147696;28;103922;-66
2022/10/02 01:06:43;;;;;;;15.73;14.33;;;;;;;22.56;56.73;94850.50;6148037;28;103139;-66
2022/10/02 01:09:46;;;;;;;17.10;15.57;;;;;;;22.56;56.51;94847.84;6157453;28;103263;-66
2022/10/02 01:12:51;;;;;;;18.33;16.60;;;;;;;22.55;56.27;94852.38;6154906;28;103810;-69
2022/10/02 01:15:57;;;;;;;17.63;16.20;;;;;;;22.55;56.64;94841.72;6140985;28;103253;-69
2022/10/02 01:19:00;;;;;;;16.73;15.30;;;;;;;22.56;56.54;94845.16;6159588;28;103454;-67
2022/10/02 01:22:11;;;;;;;17.00;15.40;;;;;;;22.55;56.35;94849.72;6158894;28;103399;-67
2022/10/02 01:25:16;;;;;;;16.63;15.13;;;;;;;22.55;56.56;94851.59;6158636;28;103255;-67
2022/10/02 01:28:19;;;;;;;16.23;14.83;;;;;;;22.52;56.38;94844.22;6148845;28;103274;-67
2022/10/02 01:31:23;;;;;;;16.10;14.53;;;;;;;22.53;55.96;94851.13;6159095;28;103459;-67
2022/10/02 01:34:27;;;;;;;16.30;14.70;;;;;;;22.52;56.24;94846.91;6158893;28;103848;-77
2022/10/02 01:37:35;;;;;;;14.30;12.90;;;;;;;22.53;56.37;94846.56;6154503;28;103316;-68
2022/10/02 01:40:41;;;;;;;14.33;13.13;;;;;;;22.51;56.17;94853.28;6155852;28;104188;-69
2022/10/02 01:43:49;;;;;;;13.00;11.77;;;;;;;22.49;55.79;94858.16;6160065;28;103109;-67
2022/10/02 01:47:00;;;;;;;12.07;11.07;;;;;;;22.49;55.62;94858.94;6157090;28;102850;-67
2022/10/02 01:50:17;;;;;;;11.30;10.33;;;;;;;22.47;54.80;94863.81;6149697;28;104362;-68
2022/10/02 01:53:29;;;;;;;11.33;10.20;;;;;;;22.49;54.94;94855.50;6158759;28;103603;-68
2022/10/02 01:56:41;;;;;;;9.97;9.00;;;;;;;22.47;54.63;94860.34;6158281;28;103268;-67
2022/10/02 01:59:57;;;;;;;9.97;9.10;;;;;;;22.49;54.53;94863.50;6157848;28;103315;-68
2022/10/02 02:03:16;;;;;;;9.80;9.00;;;;;;;22.47;54.78;94871.03;6138129;28;103204;-67
2022/10/02 02:06:29;;;;;;;10.00;9.20;;;;;;;22.49;54.53;94874.16;6158020;28;103650;-65
2022/10/02 02:09:38;;;;;;;9.50;8.70;;;;;;;22.48;55.05;94857.38;6156968;28;104210;-68
2022/10/02 02:12:45;;;;;;;9.80;8.90;;;;;;;22.45;54.99;94860.66;6145596;28;103902;-67
2022/10/02 02:15:56;;;;;;;9.07;8.30;;;;;;;22.47;54.91;94874.47;6156935;28;104270;-67
2022/10/02 02:19:05;;;;;;;9.00;8.30;;;;;;;22.44;54.60;94885.78;6157409;28;104286;-67
2022/10/02 02:22:15;;;;;;;7.80;7.00;;;;;;;22.45;54.31;94879.34;6156497;28;103402;-67
2022/10/02 02:25:21;;;;;;;7.73;7.13;;;;;;;22.42;54.66;94893.28;6145337;28;103312;-66
2022/10/02 02:28:29;;;;;;;8.33;7.50;;;;;;;22.41;54.17;94895.19;6158099;28;104410;-66
2022/10/02 02:31:37;;;;;;;7.93;7.33;;;;;;;22.40;54.22;94903.50;6157861;28;102776;-66
2022/10/02 02:34:46;;;;;;;7.83;7.13;;;;;;;22.41;53.68;94903.19;6151689;28;103065;-65
2022/10/02 02:37:51;;;;;;;6.17;5.57;;;;;;;22.40;53.50;94901.59;6143179;28;103278;-65
2022/10/02 02:40:58;;;;;;;6.57;5.97;;;;;;;22.38;53.66;94908.34;6157283;28;102967;-65
2022/10/02 02:44:06;;;;;;;5.70;5.30;;;;;;;22.39;53.54;94904.59;6157063;28;103217;-65
2022/10/02 02:47:14;;;;;;;5.60;5.10;;;;;;;22.39;53.49;94904.59;6147545;28;103872;-66
2022/10/02 02:50:21;;;;;;;5.73;5.33;;;;;;;22.38;52.71;94900.34;6154382;28;103282;-65
2022/10/02 02:53:27;;;;;;;5.37;4.87;;;;;;;22.38;52.28;94905.69;6141050;28;103271;-65
2022/10/02 02:56:32;;;;;;;4.50;4.10;;;;;;;22.36;52.06;94905.22;6157546;28;103530;-66
2022/10/02 02:59:39;;;;;;;4.60;4.20;;;;;;;22.37;52.42;94923.56;6145983;28;103212;-65
2022/10/02 03:02:42;;;;;;;4.07;3.73;;;;;;;22.35;51.49;94915.09;6155611;28;105276;-65
2022/10/02 03:05:52;;;;;;;4.83;4.03;;;;;;;22.36;51.48;94923.88;6155708;28;103244;-65
2022/10/02 03:08:55;;;;;;;10.43;4.50;;;;;;;22.36;51.63;94939.88;6151404;28;103300;-65
2022/10/02 03:12:08;;;;;;;5.73;5.23;;;;;;;22.33;51.42;94940.47;6151833;28;103276;-65
2022/10/02 03:15:27;;;;;;;5.80;5.37;;;;;;;22.34;51.03;94955.38;6156275;28;103854;-65
2022/10/02 03:18:44;;;;;;;6.90;6.30;;;;;;;22.32;50.91;94970.88;6155375;28;103758;-66
2022/10/02 03:21:56;;;;;;;8.67;7.70;;;;;;;22.31;51.28;94979.97;6126137;28;103212;-66
2022/10/02 03:25:06;;;;;;;7.90;7.20;;;;;;;22.32;51.08;94977.00;6159595;28;103314;-65
2022/10/02 03:28:16;;;;;;;6.97;6.37;;;;;;;22.31;50.67;94988.75;6160112;28;103181;-66
2022/10/02 03:31:42;;;;;;;6.80;6.30;;;;;;;22.29;51.10;94993.63;6151044;28;102891;-66
2022/10/02 03:34:45;;;;;;;6.00;5.50;;;;;;;22.29;50.92;94990.16;6156089;28;103570;-68
2022/10/02 03:37:52;;;;;;;5.90;5.40;;;;;;;22.30;50.66;94991.75;6159736;28;103280;-67
2022/10/02 03:40:56;;;;;;;6.67;6.07;;;;;;;22.30;51.28;95002.41;6161654;28;104206;-66
2022/10/02 03:44:00;;;;;;;5.40;4.90;;;;;;;22.31;51.22;95004.75;6151497;28;104143;-67
2022/10/02 03:47:04;;;;;;;5.40;5.00;;;;;;;22.29;51.32;95006.94;6161296;28;103185;-67
2022/10/02 03:50:08;;;;;;;5.73;5.33;;;;;;;22.30;51.43;95005.06;6160458;28;103143;-66
2022/10/02 03:53:14;;;;;;;7.30;5.53;;;;;;;22.29;51.67;95009.63;6150979;28;103876;-66
2022/10/02 03:56:29;;;;;;;5.33;4.83;;;;;;;22.30;51.41;95016.53;6147155;28;105057;-67
2022/10/02 03:59:42;;;;;;;5.20;4.80;;;;;;;22.29;51.39;95014.16;6160283;28;103310;-66
2022/10/02 04:02:52;;;;;;;5.27;4.27;;;;;;;22.30;51.90;95005.06;6140652;28;103308;-66
2022/10/02 04:06:01;;;;;;;4.90;4.53;;;;;;;22.26;51.48;95017.44;6140072;28;103267;-66
2022/10/02 04:09:10;;;;;;;4.60;4.30;;;;;;;22.27;51.70;95019.03;6156520;28;104207;-66
2022/10/02 04:12:17;;;;;;;4.30;4.00;;;;;;;22.28;51.36;95020.59;6159704;28;103651;-67
2022/10/02 04:15:25;;;;;;;4.17;3.87;;;;;;;22.27;51.28;95029.69;6152220;28;103276;-67
2022/10/02 04:18:35;;;;;;;4.57;4.27;;;;;;;22.23;51.33;95018.84;6142785;28;105639;-66
2022/10/02 04:21:43;;;;;;;4.47;4.17;;;;;;;22.24;50.59;95049.75;6149995;28;103188;-66
2022/10/02 04:24:51;;;;;;;4.60;4.20;;;;;;;22.24;51.02;95068.41;6160384;28;104244;-67
2022/10/02 04:27:57;;;;;;;4.40;4.10;;;;;;;22.25;50.93;95079.84;6157008;28;103738;-66
2022/10/02 04:31:02;;;;;;;4.40;4.10;;;;;;;22.22;51.53;95075.91;6148277;28;104629;-66
2022/10/02 04:34:10;;;;;;;4.77;4.37;;;;;;;22.24;51.30;95075.63;6158202;28;104327;-67
2022/10/02 04:37:42;;;;;;;5.03;4.63;;;;;;;22.27;51.41;95083.00;6158538;28;103129;-66
2022/10/02 04:41:00;;;;;;;4.60;4.30;;;;;;;22.29;51.29;95086.94;6145514;28;103592;-66
2022/10/02 04:44:16;;;;;;;4.40;4.10;;;;;;;22.31;51.62;95099.94;6159551;28;103258;-66
2022/10/02 04:47:43;;;;;;;4.10;3.80;;;;;;;22.31;51.64;95099.94;6147421;28;103300;-66
2022/10/02 04:50:54;;;;;;;4.87;4.47;;;;;;;22.31;51.92;95099.94;6149300;28;103104;-66
2022/10/02 04:54:16;;;;;;;4.23;3.93;;;;;;;22.33;51.57;95092.44;6149572;28;103410;-66
2022/10/02 04:57:36;;;;;;;5.43;4.50;;;;;;;22.32;51.81;95104.19;6158732;28;103166;-67
2022/10/02 05:00:46;;;;;;;4.60;4.20;;;;;;;22.32;51.75;95104.97;6156204;28;103255;-67
2022/10/02 05:04:05;;;;;;;4.37;4.07;;;;;;;22.31;51.80;95108.72;6148748;28;103126;-66
2022/10/02 05:07:41;;;;;;;4.67;4.20;;;;;;;22.33;51.52;95114.53;6158767;28;103508;-66
2022/10/02 05:11:04;;;;;;;4.07;3.67;;;;;;;22.36;52.09;95113.16;6151747;28;103278;-67
2022/10/02 05:14:28;;;;;;;4.93;3.90;;;;;;;22.41;52.61;95108.47;6151238;28;103198;-67
2022/10/02 05:17:45;;;;;;;5.10;3.30;;;;;;;22.38;52.90;95102.97;6152381;28;103636;-66
2022/10/02 05:21:04;;;;;;;6.60;4.03;;;;;;;22.42;52.69;95111.94;6156255;28;103454;-66
2022/10/02 05:24:29;;;;;;;3.77;3.23;;;;;;;22.57;53.12;95105.47;6150004;28;103262;-67
2022/10/02 05:27:53;;;;;;;5.40;3.70;;;;;;;22.59;52.54;95117.38;6133417;28;103462;-69
2022/10/02 05:31:07;;;;;;;5.83;4.33;;;;;;;22.66;52.66;95124.94;6153064;28;103277;-69
2022/10/02 05:34:24;;;;;;;3.90;3.40;;;;;;;22.63;52.28;95114.88;6158413;28;103502;-69
2022/10/02 05:37:46;;;;;;;4.87;4.37;;;;;;;22.73;50.93;95116.50;6146210;28;103302;-69
2022/10/02 05:41:00;;;;;;;6.00;5.10;;;;;;;22.70;50.89;95123.25;6157143;28;103390;-69
2022/10/02 05:44:12;;;;;;;6.27;5.30;;;;;;;22.76;51.09;95131.91;6149572;28;103840;-68
2022/10/02 05:47:22;;;;;;;6.30;5.90;;;;;;;22.76;51.02;95126.56;6158514;28;103168;-68
2022/10/02 05:50:31;;;;;;;6.43;5.77;;;;;;;22.82;50.52;95146.66;6146163;28;103528;-69
2022/10/02 05:53:38;;;;;;;5.87;5.37;;;;;;;22.82;49.90;95152.00;6158317;28;103423;-69
2022/10/02 05:56:47;;;;;;;8.37;6.00;;;;;;;22.81;49.46;95161.09;6156358;28;103433;-65
2022/10/02 06:00:00;;;;;;;11.83;3.87;;;;;;;22.63;48.12;95171.69;6150573;28;103925;-66
2022/10/02 06:03:12;;;;;;;9.37;5.27;;;;;;;22.66;48.92;95176.41;6145088;28;104474;-67
2022/10/02 06:06:20;;;;;;;4.43;4.03;;;;;;;22.80;47.30;95170.19;6152926;28;103187;-67
2022/10/02 06:09:26;;;;;;;4.00;3.70;;;;;;;22.74;46.08;95184.78;6156143;28;104206;-70
2022/10/02 06:12:38;;;;;;;6.10;3.07;;;;;;;22.59;45.50;95170.72;6146193;28;104300;-65
2022/10/02 06:15:49;;;;;;;3.30;3.10;;;;;;;22.58;45.57;95166.50;6158238;28;103293;-65
2022/10/02 06:18:57;;;;;;;2.87;2.67;;;;;;;22.51;45.51;95183.97;6157844;28;103052;-67
2022/10/02 06:22:07;;;;;;;22.47;4.57;;;;;;;22.49;44.89;95184.28;6157099;28;104246;-66
2022/10/02 06:25:17;;;;;;;9.13;3.40;;;;;;;22.47;44.28;95191.78;6146729;28;103321;-66
2022/10/02 06:28:26;;;;;;;2.90;2.60;;;;;;;22.55;44.45;95196.41;6158181;28;103290;-67
2022/10/02 06:31:40;;;;;;;6.60;2.90;;;;;;;22.55;44.96;95212.41;6156199;28;103138;-68
2022/10/02 06:34:44;;;;;;;3.40;2.87;;;;;;;22.55;45.64;95223.09;6150125;28;105367;-68
2022/10/02 06:38:05;;;;;;;3.77;3.43;;;;;;;22.78;46.58;95215.88;6157221;28;104844;-68
2022/10/02 06:41:19;;;;;;;4.17;3.70;;;;;;;23.03;46.05;95230.47;6155472;28;103278;-67
2022/10/02 06:44:32;;;;;;;5.13;4.27;;;;;;;23.20;45.82;95227.88;6148983;28;103937;-67
2022/10/02 06:47:57;;;;;;;4.40;4.00;;;;;;;23.27;45.59;95230.88;6143663;28;105286;-67
2022/10/02 06:51:06;;;;;;;7.00;4.07;;;;;;;23.33;45.94;95242.22;6150896;28;103243;-67
2022/10/02 06:54:33;;;;;;;5.50;3.80;;;;;;;23.37;45.65;95243.19;6157163;28;103352;-67
2022/10/02 06:57:53;;;;;;;5.10;4.43;;;;;;;23.43;45.82;95247.28;6129705;28;104877;-68
2022/10/02 07:01:08;;;;;;;6.03;3.90;;;;;;;23.54;46.43;95253.16;6161762;28;103235;-67
2022/10/02 07:04:25;;;;;;;4.20;3.90;;;;;;;23.59;46.70;95250.34;6162018;28;103097;-69
2022/10/02 07:07:48;;;;;;;7.70;4.53;;;;;;;23.65;46.63;95253.63;6162581;28;103054;-69
2022/10/02 07:10:57;;;;;;;3.87;3.57;;;;;;;23.71;46.81;95266.56;6143480;28;104027;-67
2022/10/02 07:14:14;;;;;;;7.90;5.10;;;;;;;23.73;47.06;95275.06;6152133;28;103159;-67
2022/10/02 07:17:36;;;;;;;5.67;4.67;;;;;;;23.75;46.98;95278.19;6162036;28;103636;-69
2022/10/02 07:20:52;;;;;;;7.17;4.40;;;;;;;23.75;46.67;95286.22;6155513;28;104844;-68
2022/10/02 07:24:04;;;;;;;4.70;4.27;;;;;;;23.80;46.62;95286.06;6162418;28;103140;-68
2022/10/02 07:27:14;;;;;;;6.73;4.30;;;;;;;23.82;46.47;95270.50;6161248;28;103383;-68
2022/10/02 07:30:18;;;;;;;4.10;3.70;;;;;;;23.85;46.12;95285.91;6161519;28;103349;-68
2022/10/02 07:33:35;;;;;;;4.47;4.07;;;;;;;23.85;46.30;95271.75;6151088;28;103441;-68
2022/10/02 07:36:49;;;;;;;4.10;3.80;;;;;;;23.84;46.48;95265.63;6161887;28;103183;-68
2022/10/02 07:40:10;;;;;;;3.60;3.30;;;;;;;23.88;45.98;95269.28;6161393;28;102904;-68
2022/10/02 07:43:37;;;;;;;4.60;3.50;;;;;;;23.88;46.54;95271.16;6155909;28;103187;-68
2022/10/02 07:46:53;;;;;;;4.53;3.37;;;;;;;23.92;45.96;95285.47;6161157;28;103255;-68
2022/10/02 07:50:08;;;;;;;3.77;3.33;;;;;;;23.88;45.94;95269.28;6160992;28;103129;-68
2022/10/02 07:53:20;;;;;;;3.27;3.07;;;;;;;23.90;46.12;95272.41;6161116;28;103910;-68
2022/10/02 07:56:24;;;;;;;3.67;3.37;;;;;;;23.91;45.75;95275.88;6148278;28;103368;-68
2022/10/02 07:59:31;;;;;;;3.80;3.50;;;;;;;23.95;45.42;95278.72;6158884;28;103589;-69
2022/10/02 08:02:40;;;;;;;3.40;3.10;;;;;;;23.97;45.82;95277.28;6161194;28;102906;-69
2022/10/02 08:05:47;;;;;;;3.37;3.17;;;;;;;24.00;45.91;95282.03;6166621;28;103101;-69
2022/10/02 08:08:54;;;;;;;3.47;3.17;;;;;;;24.03;45.54;95267.28;6159577;28;103438;-68
2022/10/02 08:12:02;;;;;;;3.30;3.00;;;;;;;24.09;45.69;95266.81;6160446;28;103609;-78
2022/10/02 08:15:07;;;;;;;4.50;3.40;;;;;;;24.11;45.81;95269.97;6160555;28;103136;-68
2022/10/02 08:18:17;;;;;;;3.47;2.70;;;;;;;24.16;45.35;95274.38;6148309;28;103200;-68
2022/10/02 08:21:43;;;;;;;4.50;2.93;;;;;;;24.15;45.78;95278.13;6158411;28;103225;-68
2022/10/02 08:24:52;;;;;;;4.20;3.57;;;;;;;24.16;46.11;95283.16;6159733;28;103226;-68
2022/10/02 08:28:01;;;;;;;5.97;4.03;;;;;;;24.15;45.88;95273.59;6159500;28;103145;-68
2022/10/02 08:31:09;;;;;;;6.53;4.03;;;;;;;24.17;45.88;95286.63;6150951;28;103186;-68
2022/10/02 08:34:17;;;;;;;4.83;3.37;;;;;;;24.18;45.88;95296.22;6159392;28;103092;-68
2022/10/02 08:37:31;;;;;;;4.80;3.57;;;;;;;24.21;45.47;95286.81;6159832;28;103116;-68
2022/10/02 08:41:07;;;;;;;4.50;3.13;;;;;;;24.24;44.41;95292.31;6147723;28;103029;-70
2022/10/02 08:44:48;;;;;;;2.93;2.70;;;;;;;24.26;43.83;95287.44;6159998;28;103282;-70
2022/10/02 08:48:21;;;;;;;4.67;2.77;;;;;;;24.28;42.77;95295.94;6147340;28;103126;-69
2022/10/02 08:51:49;;;;;;;3.03;2.53;;;;;;;24.28;42.75;95282.56;6152967;28;103017;-69
2022/10/02 08:55:45;;;;;;;2.60;2.40;;;;;;;24.26;42.27;95292.78;6159197;28;102938;-69
2022/10/02 08:59:18;;;;;;;4.27;2.17;;;;;;;24.24;42.13;95286.19;6159787;28;103138;-71
2022/10/02 09:03:10;;;;;;;3.00;2.10;;;;;;;24.22;41.42;95283.03;6152764;28;103268;-71
2022/10/02 09:06:46;;;;;;;9.20;3.03;;;;;;;24.21;41.18;95284.94;6154042;28;103797;-70
2022/10/02 09:10:18;;;;;;;1.97;1.80;;;;;;;24.21;41.21;95284.94;6144033;28;103297;-70
2022/10/02 09:14:05;;;;;;;2.80;2.40;;;;;;;24.19;40.61;95293.28;6147393;28;103295;-71
2022/10/02 09:17:35;;;;;;;1.70;1.60;;;;;;;24.18;40.40;95296.22;6146438;28;103371;-70
2022/10/02 09:21:14;;;;;;;1.87;1.77;;;;;;;24.17;40.32;95282.06;6135248;28;103298;-70
2022/10/02 09:24:51;;;;;;;2.13;1.77;;;;;;;24.17;39.97;95287.41;6144903;28;104432;-70
2022/10/02 09:28:28;;;;;;;4.20;2.10;;;;;;;24.18;40.39;95283.66;6132264;28;103608;-70
2022/10/02 09:31:56;;;;;;;1.80;1.70;;;;;;;24.19;39.89;95281.75;6153522;28;102870;-70
2022/10/02 09:35:25;;;;;;;3.43;1.50;;;;;;;24.22;39.50;95286.50;6157361;28;102881;-69
2022/10/02 09:39:03;;;;;;;1.70;1.60;;;;;;;24.23;39.73;95282.72;6140763;28;103756;-70
2022/10/02 09:42:29;;;;;;;1.90;1.80;;;;;;;24.24;39.33;95288.88;6141343;28;103090;-69
2022/10/02 09:45:55;;;;;;;1.93;1.80;;;;;;;24.25;39.62;95288.53;6155877;28;104467;-69
2022/10/02 09:49:25;;;;;;;2.07;1.97;;;;;;;24.23;39.62;95290.75;6119563;28;103263;-69
2022/10/02 09:53:06;;;;;;;1.93;1.83;;;;;;;24.26;39.67;95283.97;6154515;28;106531;-70
2022/10/02 09:56:40;;;;;;;2.10;2.00;;;;;;;24.24;40.78;95299.56;6125202;28;103091;-71
2022/10/02 10:00:10;;;;;;;2.17;2.07;;;;;;;24.27;40.78;95301.59;6148909;28;103376;-70
2022/10/02 10:03:41;;;;;;;2.33;2.13;;;;;;;24.25;40.83;95296.56;6153338;28;103315;-70
2022/10/02 10:07:06;;;;;;;1.93;1.73;;;;;;;24.20;40.46;95302.06;6145181;28;103636;-71
2022/10/02 10:10:49;;;;;;;2.10;1.90;;;;;;;24.20;39.96;95302.06;6156678;28;103372;-71
2022/10/02 10:14:23;;;;;;;2.43;2.20;;;;;;;24.17;39.73;95297.34;6148053;28;105149;-70
2022/10/02 10:18:13;;;;;;;2.10;2.00;;;;;;;24.18;39.93;95289.00;6158888;28;105060;-70
2022/10/02 10:21:54;;;;;;;2.00;1.80;;;;;;;24.18;40.31;95283.66;6156251;28;103638;-70
2022/10/02 10:25:21;;;;;;;2.30;2.07;;;;;;;24.13;40.44;95288.38;6140391;28;104116;-70
2022/10/02 10:28:56;;;;;;;2.43;2.23;;;;;;;24.10;40.11;95286.31;6157765;28;103055;-71
2022/10/02 10:32:32;;;;;;;3.87;1.83;;;;;;;24.02;40.13;95292.44;6152490;28;103689;-71
2022/10/02 10:38:30;;;;;;;2.13;2.00;;;;;;;24.05;39.72;95295.28;6147035;28;103318;-71
2022/10/02 10:40:13;;;;;;;2.00;1.90;;;;;;;24.03;39.64;95296.69;6159418;28;102825;-70
2022/10/02 10:43:55;;;;;;;1.70;1.60;;;;;;;24.00;39.62;95289.28;6149227;28;103298;-71
2022/10/02 10:47:54;;;;;;;1.70;1.60;;;;;;;23.97;39.79;95292.56;6138143;28;103332;-71
2022/10/02 10:51:24;;;;;;;2.00;1.90;;;;;;;23.85;39.80;95280.56;6158927;28;104425;-70
2022/10/02 10:54:54;;;;;;;1.90;1.80;;;;;;;23.92;39.52;95280.13;6149983;28;102832;-71
2022/10/02 10:58:13;;;;;;;2.03;1.73;;;;;;;23.94;39.56;95275.25;6125657;28;104358;-72
2022/10/02 11:01:20;;;;;;;2.17;1.70;;;;;;;23.92;39.71;95269.44;6159759;28;102903;-69
2022/10/02 11:04:44;;;;;;;4.03;1.90;;;;;;;24.04;39.92;95275.00;6163830;28;105770;-68
2022/10/02 11:08:06;;;;;;;1.97;1.87;;;;;;;24.08;39.94;95267.13;6137016;28;103220;-67
2022/10/02 11:11:19;;;;;;;4.07;1.90;;;;;;;24.10;40.27;95257.69;6136414;28;104576;-66
2022/10/02 11:14:35;;;;;;;2.00;1.80;;;;;;;24.08;40.38;95256.44;6158893;28;103253;-67
2022/10/02 11:17:55;;;;;;;2.80;1.80;;;;;;;24.06;40.40;95258.66;6161249;28;103413;-68
2022/10/02 11:21:32;;;;;;;2.73;1.70;;;;;;;24.06;40.54;95258.66;6152036;28;103382;-67
2022/10/02 11:25:07;;;;;;;2.97;1.50;;;;;;;24.04;40.50;95242.91;6162053;28;103395;-67
2022/10/02 11:28:45;;;;;;;5.10;1.50;;;;;;;24.06;40.70;95237.25;6160506;28;102867;-67
2022/10/02 11:32:33;;;;;;;6.10;1.90;;;;;;;24.07;40.70;95234.25;6154819;28;104193;-67
2022/10/02 11:35:48;;;;;;;2.77;1.40;;;;;;;24.09;40.75;95239.28;6124949;28;102936;-67
2022/10/02 11:39:05;;;;;;;1.70;1.57;;;;;;;24.07;40.68;95238.81;6161034;28;103099;-67
2022/10/02 11:42:47;;;;;;;2.30;1.40;;;;;;;24.04;40.65;95234.09;6146571;28;103258;-67
2022/10/02 11:46:13;;;;;;;1.73;1.53;;;;;;;24.05;40.50;95254.41;6151934;28;103537;-66
2022/10/02 11:49:42;;;;;;;1.40;1.30;;;;;;;24.07;40.87;95246.84;6160759;28;103553;-67
2022/10/02 11:53:21;;;;;;;2.00;1.90;;;;;;;23.96;41.08;95250.88;6160922;28;104764;-68
2022/10/02 11:56:48;;;;;;;2.97;2.70;;;;;;;23.95;41.45;95243.97;6146060;28;102974;-68
2022/10/02 12:00:14;;;;;;;3.20;3.00;;;;;;;23.92;41.25;95247.25;6154632;28;104803;-68
2022/10/02 12:03:25;;;;;;;3.47;3.17;;;;;;;23.85;41.40;95247.72;6154890;28;102821;-71
2022/10/02 12:06:44;;;;;;;3.37;3.13;;;;;;;23.83;41.76;95241.88;6134118;28;103541;-77
2022/10/02 12:10:01;;;;;;;3.03;2.83;;;;;;;23.78;41.30;95242.84;6160569;28;104107;-71
2022/10/02 12:13:23;;;;;;;3.07;2.73;;;;;;;23.81;41.01;95247.53;6161113;28;103121;-71
2022/10/02 12:16:38;;;;;;;3.13;2.10;;;;;;;23.78;40.04;95237.50;6142394;28;103272;-72
2022/10/02 12:27:02;;;;;;;1.80;1.70;;;;;;;23.75;39.79;95253.38;6151075;28;104213;-70
2022/10/02 12:30:11;;;;;;;2.37;2.17;;;;;;;23.79;40.14;95252.41;6136613;28;103425;-70
2022/10/02 12:33:33;;;;;;;1.83;1.73;;;;;;;23.80;40.13;95251.31;6131277;28;103290;-71
2022/10/02 12:36:50;;;;;;;3.43;1.87;;;;;;;23.77;40.32;95254.63;6133317;28;104471;-69
2022/10/02 12:40:04;;;;;;;2.10;1.90;;;;;;;23.79;40.46;95263.09;6119466;28;104349;-69
2022/10/02 12:43:38;;;;;;;2.40;1.73;;;;;;;23.78;40.25;95258.88;6112163;28;104995;-71
2022/10/02 12:47:03;;;;;;;3.30;1.70;;;;;;;23.80;40.80;95256.66;6121522;28;102982;-70
2022/10/02 12:50:23;;;;;;;1.77;1.57;;;;;;;23.80;40.19;95254.00;6143036;28;103324;-70
2022/10/02 12:54:06;;;;;;;1.93;1.73;;;;;;;23.78;40.37;95250.84;6135639;28;106317;-70
2022/10/02 12:57:55;;;;;;;1.63;1.27;;;;;;;23.80;40.58;95258.56;6145465;28;105741;-70
2022/10/02 13:01:30;;;;;;;1.67;1.57;;;;;;;23.79;40.65;95249.75;6143341;28;104347;-69
2022/10/02 13:05:01;;;;;;;1.40;1.30;;;;;;;23.78;40.33;95250.06;6135252;28;103756;-70
2022/10/02 13:08:24;;;;;;;1.50;1.40;;;;;;;23.71;40.18;95242.50;6138397;28;103268;-71
2022/10/02 13:11:38;;;;;;;1.77;1.63;;;;;;;23.68;40.19;95243.13;6142230;28;103307;-71
2022/10/02 13:15:03;;;;;;;1.53;1.43;;;;;;;23.69;40.41;95252.72;6144526;28;103631;-71
2022/10/02 13:18:32;;;;;;;2.50;2.00;;;;;;;23.72;40.43;95249.44;6142257;28;103160;-70
2022/10/02 13:21:49;;;;;;;2.17;2.07;;;;;;;23.72;40.90;95259.34;6128762;28;102933;-71
2022/10/02 13:25:17;;;;;;;2.60;2.40;;;;;;;23.66;40.91;95261.34;6133769;28;105862;-69
2022/10/02 13:28:43;;;;;;;1.93;1.70;;;;;;;23.67;40.78;95268.25;6119927;28;103776;-69
2022/10/02 13:32:17;;;;;;;2.50;1.90;;;;;;;23.67;40.23;95268.25;6144237;28;103235;-71
2022/10/02 13:35:47;;;;;;;2.30;2.10;;;;;;;23.68;40.30;95269.84;6118002;28;106262;-72
2022/10/02 13:39:08;;;;;;;3.90;1.70;;;;;;;23.67;40.39;95262.91;6126663;28;103331;-72
2022/10/02 13:42:26;;;;;;;2.03;1.83;;;;;;;23.70;40.55;95267.66;6132092;28;103277;-71
2022/10/02 13:45:35;;;;;;;2.67;1.70;;;;;;;23.74;40.78;95262.47;6135375;28;103164;-70
2022/10/02 13:48:53;;;;;;;1.77;1.60;;;;;;;23.76;40.91;95257.59;6133773;28;103123;-72
2022/10/02 13:52:04;;;;;;;2.80;1.90;;;;;;;23.70;40.73;95251.63;6122643;28;105767;-72
2022/10/02 13:55:18;;;;;;;3.13;1.77;;;;;;;23.74;40.43;95257.91;6134007;28;104303;-69
2022/10/02 13:58:37;;;;;;;2.40;1.93;;;;;;;23.82;40.78;95261.69;6131493;28;103937;-69
2022/10/02 14:01:56;;;;;;;1.87;1.77;;;;;;;23.87;40.43;95261.56;6121365;28;103412;-65
2022/10/02 14:05:06;;;;;;;2.90;1.70;;;;;;;23.90;40.28;95260.94;6137787;28;103355;-69
2022/10/02 14:08:33;;;;;;;3.00;1.90;;;;;;;23.87;39.74;95261.56;6134896;28;103272;-71
2022/10/02 14:11:49;;;;;;;3.53;1.63;;;;;;;23.89;39.55;95259.38;6130429;28;103083;-70
2022/10/02 14:15:13;;;;;;;1.40;1.20;;;;;;;23.91;39.45;95257.16;6125709;28;104089;-72
2022/10/02 14:18:37;;;;;;;2.27;1.50;;;;;;;23.90;39.03;95258.28;6140377;28;103553;-72
2022/10/02 14:21:54;;;;;;;1.87;1.77;;;;;;;23.90;39.17;95268.97;6133871;28;103269;-73
2022/10/02 14:25:25;;;;;;;1.93;1.83;;;;;;;23.85;39.33;95259.19;6133265;28;105045;-73
2022/10/02 14:28:45;;;;;;;2.40;2.20;;;;;;;23.91;38.91;95259.84;6116704;28;104212;-70
2022/10/02 14:32:12;;;;;;;2.70;2.47;;;;;;;23.89;39.57;95254.81;6145474;28;103310;-69
2022/10/02 14:35:30;;;;;;;5.07;3.47;;;;;;;23.89;39.10;95248.69;6130710;28;103285;-68
2022/10/02 14:39:03;;;;;;;4.77;3.73;;;;;;;23.89;38.77;95248.69;6129031;28;104480;-71
2022/10/02 14:42:26;;;;;;;5.23;3.57;;;;;;;23.80;38.74;95240.63;6132091;28;103072;-71
2022/10/02 14:45:57;;;;;;;3.53;3.03;;;;;;;23.81;39.02;95238.75;6137997;28;105786;-71
2022/10/02 14:49:23;;;;;;;3.90;3.07;;;;;;;23.80;39.21;95235.28;6123091;28;103196;-73
2022/10/02 14:52:42;;;;;;;3.43;3.07;;;;;;;23.76;39.15;95231.66;6140020;28;103000;-70
2022/10/02 14:56:17;;;;;;;3.43;2.90;;;;;;;23.77;39.37;95219.88;6133357;28;103456;-70
2022/10/02 14:59:47;;;;;;;3.20;2.50;;;;;;;23.81;39.32;95225.38;6123566;28;103881;-71
2022/10/02 15:03:15;;;;;;;3.53;3.20;;;;;;;23.78;39.03;95221.44;6137029;28;103594;-72
2022/10/02 15:06:25;;;;;;;3.60;2.17;;;;;;;23.79;39.28;95228.38;6132531;28;102887;-71
2022/10/02 15:09:37;;;;;;;3.00;2.40;;;;;;;23.77;39.52;95235.13;6129144;28;105359;-71
2022/10/02 15:12:47;;;;;;;3.87;2.53;;;;;;;23.78;39.42;95226.78;6124704;28;103372;-71
2022/10/02 15:19:19;;;;;;;2.90;2.30;;;;;;;23.76;39.49;95242.34;6134723;28;105092;-67
2022/10/02 15:22:28;;;;;;;3.23;2.40;;;;;;;23.78;39.75;95242.84;6126924;28;105140;-67
2022/10/02 15:25:46;;;;;;;3.23;2.80;;;;;;;23.71;39.73;95242.50;6139435;28;105360;-68
2022/10/02 15:28:59;;;;;;;3.17;2.67;;;;;;;23.75;39.32;95237.31;6138317;28;103014;-70
2022/10/02 15:32:22;;;;;;;2.83;2.63;;;;;;;23.69;39.62;95239.38;6136240;28;104868;-69